Terminal Aerodrome Forecast
Issued by NWS Tuscon, AZ

Home | Current Version | Previous Version | Text Only | Print | Product List | Glossary On
Versions: 1 2 3 4 5 6 7 8 9 10 11 12 13 14 15 16 17
000
FTUS45 KTWC 040538
TAFDUG
TAF
KDUG 040538Z 0406/0506 28006KT P6SM BKN100
     FM040800 VRB04KT P6SM SCT080
     FM041500 17010KT P6SM BKN060
     FM041900 22018G28KT P6SM SCT040 BKN060
     FM050300 26011KT P6SM BKN060=

USA.gov is the U.S. government's official web portal to all federal, state and local government web resources and services.